createdAt,value
2022-12-06T00:01:32.579Z,90.70
2022-12-06T00:04:03.114Z,90.70
2022-12-06T00:06:32.688Z,90.62
2022-12-06T00:09:00.854Z,90.64
2022-12-06T00:11:31.213Z,90.73
2022-12-06T00:14:03.145Z,90.98
2022-12-06T00:16:32.019Z,91.28
2022-12-06T00:19:00.053Z,90.99
2022-12-06T00:21:31.534Z,91.02
2022-12-06T00:24:04.805Z,91.11
2022-12-06T00:26:32.249Z,90.73
2022-12-06T00:29:00.750Z,90.51
2022-12-06T00:31:30.466Z,90.65
2022-12-06T00:33:58.692Z,90.58
2022-12-06T00:36:29.249Z,90.70
2022-12-06T00:38:59.564Z,90.64
2022-12-06T00:41:27.321Z,90.48
2022-12-06T00:43:55.113Z,90.85
2022-12-06T00:46:25.414Z,90.60
2022-12-06T00:48:54.140Z,90.55
2022-12-06T00:51:22.763Z,90.59
2022-12-06T00:53:50.566Z,90.60
2022-12-06T00:56:18.813Z,91.02
2022-12-06T00:58:46.567Z,91.16
2022-12-06T01:01:22.994Z,90.81
2022-12-06T01:03:53.133Z,90.82
2022-12-06T01:06:23.108Z,90.65
2022-12-06T01:08:50.680Z,90.57
2022-12-06T01:11:18.645Z,90.39
2022-12-06T01:13:45.976Z,90.46
2022-12-06T01:16:17.089Z,90.00
2022-12-06T01:18:45.808Z,90.17
2022-12-06T01:21:16.718Z,90.07
2022-12-06T01:23:45.220Z,89.88
2022-12-06T01:26:17.147Z,89.75
2022-12-06T01:28:44.996Z,90.06
2022-12-06T01:31:13.040Z,89.89
2022-12-06T01:33:40.852Z,89.93
2022-12-06T01:36:08.478Z,89.72
2022-12-06T01:38:36.245Z,89.50
2022-12-06T01:41:03.611Z,89.52
2022-12-06T01:43:37.812Z,89.62
2022-12-06T01:46:28.640Z,89.68
2022-12-06T01:49:09.940Z,89.66
2022-12-06T01:51:40.872Z,90.18
2022-12-06T01:54:11.425Z,90.48
2022-12-06T01:56:39.876Z,90.48
2022-12-06T01:59:08.359Z,90.25
2022-12-06T02:01:37.725Z,90.21
2022-12-06T02:04:06.843Z,89.95
2022-12-06T02:06:36.001Z,89.97
2022-12-06T02:09:06.328Z,90.14
2022-12-06T02:11:35.594Z,90.11
2022-12-06T02:14:05.991Z,89.99
2022-12-06T02:16:54.379Z,89.80
2022-12-06T02:19:39.818Z,90.07
2022-12-06T02:22:41.154Z,90.46
2022-12-06T02:25:17.713Z,90.53
2022-12-06T02:27:59.678Z,90.59
2022-12-06T02:31:05.143Z,90.31
2022-12-06T02:33:57.736Z,90.35
2022-12-06T02:36:34.746Z,90.27
2022-12-06T02:39:16.795Z,90.52
2022-12-06T02:42:05.315Z,90.49
2022-12-06T02:44:39.699Z,90.12
2022-12-06T02:47:11.831Z,90.18
2022-12-06T02:49:49.958Z,89.95
2022-12-06T02:52:20.301Z,90.17
2022-12-06T02:54:49.528Z,90.27
2022-12-06T02:57:19.454Z,90.32
2022-12-06T02:59:54.939Z,89.97
2022-12-06T03:02:23.752Z,89.42
2022-12-06T03:05:09.313Z,88.78
2022-12-06T03:07:45.877Z,88.32
2022-12-06T03:10:27.555Z,88.14
2022-12-06T03:13:22.777Z,87.71
2022-12-06T03:15:58.695Z,87.24
2022-12-06T03:18:51.121Z,87.08
2022-12-06T03:21:54.026Z,86.74
2022-12-06T03:24:23.071Z,86.02
2022-12-06T03:26:56.937Z,85.83
2022-12-06T03:29:26.711Z,85.25
2022-12-06T03:31:56.365Z,84.93
2022-12-06T03:34:31.937Z,84.80
2022-12-06T03:37:00.918Z,84.31
2022-12-06T03:39:37.866Z,84.01
2022-12-06T03:42:05.609Z,83.61
2022-12-06T03:44:34.405Z,83.27
2022-12-06T03:47:16.004Z,83.55
2022-12-06T03:49:48.290Z,83.66
2022-12-06T03:52:15.649Z,83.87
2022-12-06T03:54:43.003Z,84.29
2022-12-06T03:57:10.750Z,84.77
2022-12-06T03:59:38.083Z,85.39
2022-12-06T04:02:05.945Z,85.49
2022-12-06T04:04:33.719Z,85.70
2022-12-06T04:07:01.199Z,85.61
2022-12-06T04:09:47.291Z,85.91
2022-12-06T04:12:33.423Z,86.00
2022-12-06T04:15:00.906Z,86.35
2022-12-06T04:17:46.738Z,86.66
2022-12-06T04:20:14.040Z,86.85
2022-12-06T04:23:00.635Z,86.97
2022-12-06T04:25:28.090Z,87.24
2022-12-06T04:28:14.807Z,87.17
2022-12-06T04:31:00.647Z,87.15
2022-12-06T04:33:46.778Z,87.62
2022-12-06T04:36:32.640Z,87.83
2022-12-06T04:39:00.153Z,87.71
2022-12-06T04:41:46.213Z,87.73
2022-12-06T04:44:13.576Z,87.49
2022-12-06T04:46:41.017Z,87.19
2022-12-06T04:49:08.433Z,86.89
2022-12-06T04:51:35.739Z,86.79
2022-12-06T04:54:03.855Z,86.64
2022-12-06T04:56:31.443Z,86.71
2022-12-06T04:58:59.893Z,86.58
2022-12-06T05:01:27.251Z,86.45
2022-12-06T05:03:54.581Z,86.62
2022-12-06T05:06:21.981Z,86.58
2022-12-06T05:08:49.351Z,86.80
2022-12-06T05:11:16.636Z,86.99
2022-12-06T05:13:44.035Z,87.17
2022-12-06T05:16:11.740Z,87.51
2022-12-06T05:18:39.403Z,87.34
2022-12-06T05:21:15.959Z,87.41
2022-12-06T05:23:43.301Z,87.14
2022-12-06T05:26:14.543Z,87.23
2022-12-06T05:28:42.146Z,87.23
2022-12-06T05:31:10.094Z,86.93
2022-12-06T05:33:38.358Z,86.92
2022-12-06T05:36:11.744Z,86.80
2022-12-06T05:38:39.185Z,86.72
2022-12-06T05:41:07.602Z,86.71
2022-12-06T05:43:35.305Z,86.64
2022-12-06T05:46:03.129Z,86.52
2022-12-06T05:48:30.597Z,86.57
2022-12-06T05:50:58.076Z,86.30
2022-12-06T05:53:25.391Z,86.35
2022-12-06T05:55:52.689Z,86.41
2022-12-06T05:58:20.430Z,86.41
2022-12-06T06:00:49.549Z,86.35
2022-12-06T06:03:17.936Z,86.31
2022-12-06T06:05:50.031Z,86.36
2022-12-06T06:08:18.311Z,86.27
2022-12-06T06:10:45.825Z,86.27
2022-12-06T06:13:14.984Z,86.09
2022-12-06T06:15:44.082Z,86.02
2022-12-06T06:18:11.485Z,85.94
2022-12-06T06:20:38.761Z,85.49
2022-12-06T06:23:06.141Z,85.61
2022-12-06T06:25:33.568Z,85.59
2022-12-06T06:28:00.887Z,85.37
2022-12-06T06:30:28.347Z,85.37
2022-12-06T06:32:55.840Z,85.51
2022-12-06T06:35:23.249Z,85.53
2022-12-06T06:37:50.700Z,85.42
2022-12-06T06:40:18.091Z,84.93
2022-12-06T06:42:46.284Z,84.69
2022-12-06T06:45:13.925Z,84.41
2022-12-06T06:47:41.875Z,83.78
2022-12-06T06:50:09.844Z,83.31
2022-12-06T06:52:37.364Z,83.20
2022-12-06T06:55:05.025Z,83.13
2022-12-06T06:57:32.585Z,83.10
2022-12-06T07:00:00.243Z,82.61
2022-12-06T07:02:27.892Z,82.77
2022-12-06T07:04:55.400Z,82.21
2022-12-06T07:07:22.911Z,82.33
2022-12-06T07:09:50.307Z,81.89
2022-12-06T07:12:18.106Z,81.61
2022-12-06T07:14:45.530Z,81.12
2022-12-06T07:17:12.904Z,80.72
2022-12-06T07:19:40.803Z,80.40
2022-12-06T07:22:08.131Z,79.03
2022-12-06T07:24:41.276Z,78.64
2022-12-06T07:27:09.656Z,79.29
2022-12-06T07:29:38.717Z,79.85
2022-12-06T07:32:06.362Z,79.83
2022-12-06T07:34:33.683Z,80.01
2022-12-06T07:37:01.827Z,79.35
2022-12-06T07:39:29.203Z,80.46
2022-12-06T07:42:15.229Z,74.60
2022-12-06T07:45:02.993Z,59.59
2022-12-06T07:47:39.228Z,63.60
2022-12-06T07:50:17.340Z,65.29
2022-12-06T07:52:46.611Z,68.29
2022-12-06T07:55:14.988Z,68.89
2022-12-06T07:57:44.246Z,70.80
2022-12-06T08:00:14.457Z,71.65
2022-12-06T08:02:42.417Z,68.63
2022-12-06T08:05:10.280Z,68.94
2022-12-06T08:07:38.379Z,68.11
2022-12-06T08:10:06.630Z,68.39
2022-12-06T08:12:34.095Z,67.09
2022-12-06T08:15:01.670Z,67.63
2022-12-06T08:17:30.483Z,66.90
2022-12-06T08:20:00.125Z,66.67
2022-12-06T08:22:30.854Z,66.02
2022-12-06T08:24:58.988Z,65.72
2022-12-06T08:27:27.041Z,64.07
2022-12-06T08:29:54.825Z,65.37
2022-12-06T08:32:22.297Z,65.97
2022-12-06T08:34:50.325Z,66.04
2022-12-06T08:37:18.036Z,67.04
2022-12-06T08:39:45.316Z,67.73
2022-12-06T08:42:12.705Z,68.52
2022-12-06T08:44:40.092Z,68.37
2022-12-06T08:47:09.756Z,67.35
2022-12-06T08:49:37.911Z,68.75
2022-12-06T08:52:05.917Z,69.32
2022-12-06T08:54:35.161Z,71.26
2022-12-06T08:57:04.813Z,71.02
2022-12-06T08:59:32.948Z,69.92
2022-12-06T09:02:00.481Z,72.63
2022-12-06T09:04:28.475Z,72.50
2022-12-06T09:06:56.755Z,72.17
2022-12-06T09:09:24.077Z,67.50
2022-12-06T09:11:51.523Z,63.29
2022-12-06T09:14:22.038Z,60.18
2022-12-06T09:16:50.770Z,61.28
2022-12-06T09:19:18.896Z,50.43
2022-12-06T09:21:46.632Z,42.31
2022-12-06T09:24:16.168Z,40.51
2022-12-06T09:26:43.668Z,41.67
2022-12-06T09:29:11.690Z,42.89
2022-12-06T09:31:40.445Z,43.33
2022-12-06T09:34:09.052Z,47.08
2022-12-06T09:36:43.742Z,50.98
2022-12-06T09:39:18.634Z,52.04
2022-12-06T09:41:58.292Z,54.70
2022-12-06T09:44:44.498Z,55.82
2022-12-06T09:47:30.800Z,56.06
2022-12-06T09:50:05.458Z,55.90
2022-12-06T09:53:02.251Z,50.45
2022-12-06T09:55:43.041Z,48.06
2022-12-06T09:58:19.212Z,51.93
2022-12-06T10:00:54.437Z,54.68
2022-12-06T10:03:39.506Z,56.79
2022-12-06T10:06:14.588Z,56.50
2022-12-06T10:09:00.534Z,56.60
2022-12-06T10:11:57.327Z,56.34
2022-12-06T10:14:51.921Z,58.02
2022-12-06T10:17:34.152Z,59.03
2022-12-06T10:20:19.421Z,60.42
2022-12-06T10:22:52.720Z,60.26
2022-12-06T10:25:40.289Z,59.62
2022-12-06T10:28:14.531Z,60.59
2022-12-06T10:30:52.003Z,61.16
2022-12-06T10:33:40.937Z,59.88
2022-12-06T10:36:12.970Z,59.97
2022-12-06T10:39:00.175Z,55.93
2022-12-06T10:41:44.900Z,49.49
2022-12-06T10:44:21.297Z,49.67
2022-12-06T10:47:05.339Z,52.25
2022-12-06T10:49:53.651Z,55.17
2022-12-06T10:52:29.736Z,57.04
2022-12-06T10:55:02.696Z,58.23
2022-12-06T10:57:56.656Z,58.82
2022-12-06T11:00:30.583Z,57.58
2022-12-06T11:03:02.909Z,59.02
2022-12-06T11:06:01.719Z,60.52
2022-12-06T11:08:35.275Z,62.86
2022-12-06T11:11:05.611Z,62.50
2022-12-06T11:13:38.778Z,62.17
2022-12-06T11:16:26.980Z,61.77
2022-12-06T11:19:00.605Z,62.52
2022-12-06T11:21:44.745Z,63.50
2022-12-06T11:24:26.663Z,64.84
2022-12-06T11:27:05.606Z,66.76
2022-12-06T11:29:33.005Z,67.50
2022-12-06T11:32:07.593Z,68.37
2022-12-06T11:34:44.775Z,68.62
2022-12-06T11:37:19.262Z,69.95
2022-12-06T11:39:49.076Z,70.81
2022-12-06T11:42:23.419Z,71.13
2022-12-06T11:45:21.767Z,71.44
2022-12-06T11:47:49.112Z,70.83
2022-12-06T11:50:19.928Z,70.68
2022-12-06T11:53:11.818Z,70.81
2022-12-06T11:55:45.756Z,70.91
2022-12-06T11:58:25.217Z,71.29
2022-12-06T12:01:10.796Z,70.96
2022-12-06T12:03:40.537Z,71.88
2022-12-06T12:06:26.868Z,71.78
2022-12-06T12:09:02.960Z,72.09
2022-12-06T12:11:32.972Z,73.86
2022-12-06T12:14:07.594Z,75.21
2022-12-06T12:16:42.811Z,76.45
2022-12-06T12:19:46.515Z,77.91
2022-12-06T12:22:25.313Z,78.97
2022-12-06T12:25:20.583Z,80.15
2022-12-06T12:27:53.771Z,81.32
2022-12-06T12:30:40.309Z,81.67
2022-12-06T12:33:07.581Z,83.68
2022-12-06T12:35:39.134Z,84.17
2022-12-06T12:38:28.566Z,84.27
2022-12-06T12:41:12.606Z,84.62
2022-12-06T12:43:40.042Z,85.40
2022-12-06T12:46:10.365Z,85.23
2022-12-06T12:48:39.498Z,85.33
2022-12-06T12:51:21.587Z,86.03
2022-12-06T12:53:55.025Z,85.88
2022-12-06T12:56:23.184Z,86.68
2022-12-06T12:58:55.150Z,87.58
2022-12-06T13:01:25.483Z,87.33
2022-12-06T13:04:03.079Z,87.30
2022-12-06T13:06:52.809Z,88.05
2022-12-06T13:09:50.242Z,88.18
2022-12-06T13:12:40.436Z,88.15
2022-12-06T13:15:29.334Z,88.08
2022-12-06T13:18:04.436Z,88.50
2022-12-06T13:20:34.503Z,88.67
2022-12-06T13:23:12.343Z,88.60
2022-12-06T13:25:39.879Z,88.62
2022-12-06T13:28:17.288Z,88.57
2022-12-06T13:30:46.644Z,88.51
2022-12-06T13:33:24.240Z,88.41
2022-12-06T13:36:03.499Z,88.41
2022-12-06T13:38:33.724Z,88.35
2022-12-06T13:41:11.747Z,88.29
2022-12-06T13:43:40.180Z,88.25
2022-12-06T13:46:07.624Z,88.32
2022-12-06T13:48:37.889Z,88.37
2022-12-06T13:51:11.125Z,88.52
2022-12-06T13:54:17.031Z,88.82
2022-12-06T13:56:44.655Z,88.86
2022-12-06T13:59:15.154Z,88.92
2022-12-06T14:01:48.751Z,89.12
2022-12-06T14:07:00.236Z,89.57
2022-12-06T14:09:38.034Z,89.93
2022-12-06T14:12:17.870Z,90.04
2022-12-06T14:15:05.057Z,90.02
2022-12-06T14:20:30.335Z,90.28
2022-12-06T14:22:57.807Z,90.39
2022-12-06T14:25:28.523Z,90.49
2022-12-06T14:28:22.044Z,90.69
2022-12-06T14:30:51.150Z,90.83
2022-12-06T14:33:22.370Z,90.98
2022-12-06T14:35:52.452Z,91.04
2022-12-06T14:38:30.876Z,91.13
2022-12-06T14:41:17.331Z,91.14
2022-12-06T14:43:47.639Z,91.42
2022-12-06T14:46:17.631Z,91.56
2022-12-06T14:49:04.463Z,92.27
2022-12-06T14:51:42.566Z,92.79
2022-12-06T14:54:32.007Z,93.06
2022-12-06T14:57:00.145Z,93.20
2022-12-06T15:00:11.021Z,93.14
2022-12-06T15:02:27.735Z,93.21
2022-12-06T15:04:55.922Z,93.20
2022-12-06T15:07:36.818Z,93.21
2022-12-06T15:10:16.399Z,93.49
2022-12-06T15:12:56.031Z,93.73
2022-12-06T15:15:41.528Z,93.99
2022-12-06T15:18:22.982Z,93.93
2022-12-06T15:20:51.213Z,93.95
2022-12-06T15:23:40.895Z,93.75
2022-12-06T15:26:11.991Z,93.62
2022-12-06T15:28:40.687Z,93.75
2022-12-06T15:31:19.507Z,93.56
2022-12-06T15:33:47.638Z,93.40
2022-12-06T15:36:23.678Z,93.49
2022-12-06T15:38:51.267Z,93.62
2022-12-06T15:41:20.960Z,93.79
2022-12-06T15:43:49.609Z,93.85
2022-12-06T15:46:24.101Z,93.61
2022-12-06T15:48:53.000Z,93.56
2022-12-06T15:51:24.893Z,93.53
2022-12-06T15:53:55.361Z,93.56
2022-12-06T15:56:25.144Z,93.59
2022-12-06T15:58:52.577Z,93.63
2022-12-06T16:01:23.320Z,93.61
2022-12-06T16:03:53.234Z,93.49
2022-12-06T16:06:23.002Z,93.47
2022-12-06T16:08:50.475Z,93.74
2022-12-06T16:11:21.517Z,93.98
2022-12-06T16:13:50.511Z,94.13
2022-12-06T16:16:20.369Z,94.16
2022-12-06T16:18:48.631Z,94.15
2022-12-06T16:21:31.023Z,94.27
2022-12-06T16:24:16.495Z,94.31
2022-12-06T16:26:45.103Z,94.21
2022-12-06T16:29:20.532Z,94.21
2022-12-06T16:31:51.024Z,94.21
2022-12-06T16:34:19.181Z,94.30
2022-12-06T16:36:54.187Z,94.35
2022-12-06T16:39:21.833Z,94.33
2022-12-06T16:41:49.277Z,94.22
2022-12-06T16:44:16.664Z,94.27
2022-12-06T16:46:44.501Z,94.22
2022-12-06T16:52:11.384Z,94.09
2022-12-06T16:54:42.264Z,94.13
2022-12-06T16:57:14.162Z,94.20
2022-12-06T16:59:42.667Z,94.20
2022-12-06T17:02:26.611Z,94.18
2022-12-06T17:04:55.314Z,94.30
2022-12-06T17:07:23.109Z,94.53
2022-12-06T17:09:50.702Z,94.50
2022-12-06T17:12:19.226Z,94.70
2022-12-06T17:14:46.684Z,94.79
2022-12-06T17:17:16.388Z,94.70
2022-12-06T17:19:44.342Z,94.59
2022-12-06T17:22:15.612Z,94.53
2022-12-06T17:24:42.905Z,94.39
2022-12-06T17:27:10.289Z,94.38
2022-12-06T17:29:37.778Z,94.33
2022-12-06T17:32:05.542Z,94.20
2022-12-06T17:34:33.237Z,94.14
2022-12-06T17:37:00.606Z,94.12
2022-12-06T17:39:28.012Z,94.09
2022-12-06T17:42:14.342Z,94.06
2022-12-06T17:44:41.684Z,94.21
2022-12-06T17:47:09.086Z,94.40
2022-12-06T17:49:38.281Z,94.57
2022-12-06T17:52:06.469Z,94.64
2022-12-06T17:54:33.848Z,94.70
2022-12-06T17:57:01.306Z,94.75
2022-12-06T17:59:31.823Z,94.73
2022-12-06T18:02:16.767Z,94.75
2022-12-06T18:04:46.169Z,94.77
2022-12-06T18:07:14.318Z,94.67
2022-12-06T18:09:41.722Z,94.65
2022-12-06T18:12:10.642Z,94.68
2022-12-06T18:14:37.953Z,94.67
2022-12-06T18:17:05.631Z,94.81
2022-12-06T18:19:33.541Z,94.87
2022-12-06T18:22:01.030Z,94.94
2022-12-06T18:24:35.106Z,94.99
2022-12-06T18:27:04.879Z,95.03
2022-12-06T18:29:32.533Z,95.06
2022-12-06T18:32:00.125Z,95.10
2022-12-06T18:34:27.592Z,95.06
2022-12-06T18:36:56.181Z,95.11
2022-12-06T18:39:26.534Z,95.10
2022-12-06T18:42:01.040Z,95.08
2022-12-06T18:44:28.397Z,94.98
2022-12-06T18:46:55.691Z,94.89
2022-12-06T18:49:23.039Z,94.93
2022-12-06T18:51:50.471Z,94.83
2022-12-06T18:54:17.867Z,94.77
2022-12-06T18:56:45.263Z,94.66
2022-12-06T18:59:12.736Z,94.61
2022-12-06T19:01:41.322Z,94.54
2022-12-06T19:04:13.273Z,94.47
2022-12-06T19:06:40.957Z,94.40
2022-12-06T19:09:10.888Z,94.35
2022-12-06T19:11:46.594Z,94.24
2022-12-06T19:14:15.724Z,94.18
2022-12-06T19:16:48.153Z,94.11
2022-12-06T19:19:21.707Z,94.06
2022-12-06T19:21:50.834Z,94.01
2022-12-06T19:24:23.894Z,93.92
2022-12-06T19:26:52.353Z,93.99
2022-12-06T19:29:19.946Z,94.14
2022-12-06T19:31:47.856Z,94.21
2022-12-06T19:34:21.454Z,94.27
2022-12-06T19:36:50.484Z,94.21
2022-12-06T19:39:18.677Z,94.19
2022-12-06T19:42:05.176Z,94.23
2022-12-06T19:44:32.593Z,94.21
2022-12-06T19:47:00.063Z,94.24
2022-12-06T19:49:29.208Z,94.09
2022-12-06T19:51:56.591Z,94.09
2022-12-06T19:54:31.894Z,94.12
2022-12-06T19:57:00.898Z,94.18
2022-12-06T19:59:31.583Z,94.43
2022-12-06T20:01:58.992Z,94.42
2022-12-06T20:04:29.943Z,94.53
2022-12-06T20:06:57.872Z,94.50
2022-12-06T20:09:29.250Z,94.50
2022-12-06T20:12:04.738Z,94.47
2022-12-06T20:14:46.714Z,94.50
2022-12-06T20:17:24.683Z,94.70
2022-12-06T20:19:52.087Z,94.70
2022-12-06T20:22:22.744Z,94.66
2022-12-06T20:24:50.823Z,94.60
2022-12-06T20:27:39.047Z,94.48
2022-12-06T20:30:07.764Z,94.38
2022-12-06T20:32:35.166Z,94.26
2022-12-06T20:35:03.841Z,94.18
2022-12-06T20:37:31.408Z,94.16
2022-12-06T20:39:59.676Z,94.08
2022-12-06T20:42:32.573Z,94.05
2022-12-06T20:45:00.390Z,93.95
2022-12-06T20:47:28.006Z,93.94
2022-12-06T20:49:55.354Z,93.96
2022-12-06T20:52:23.658Z,93.94
2022-12-06T20:54:51.704Z,93.91
2022-12-06T20:57:19.631Z,94.12
2022-12-06T20:59:46.903Z,94.56
2022-12-06T21:02:14.545Z,94.58
2022-12-06T21:04:42.233Z,94.61
2022-12-06T21:07:09.842Z,94.60
2022-12-06T21:09:37.237Z,94.42
2022-12-06T21:12:04.670Z,94.33
2022-12-06T21:14:33.531Z,94.34
2022-12-06T21:17:01.709Z,94.24
2022-12-06T21:19:29.610Z,94.21
2022-12-06T21:21:59.505Z,94.16
2022-12-06T21:24:26.964Z,94.40
2022-12-06T21:26:54.317Z,94.75
2022-12-06T21:29:30.364Z,94.86
2022-12-06T21:32:01.834Z,94.91
2022-12-06T21:34:32.878Z,94.75
2022-12-06T21:37:00.753Z,94.75
2022-12-06T21:39:28.220Z,94.65
2022-12-06T21:41:55.893Z,94.64
2022-12-06T21:44:23.920Z,94.70
2022-12-06T21:46:52.546Z,94.67
2022-12-06T21:49:20.096Z,94.64
2022-12-06T21:51:47.554Z,94.54
2022-12-06T21:54:15.000Z,94.58
2022-12-06T21:56:42.443Z,94.53
2022-12-06T21:59:09.791Z,94.44
2022-12-06T22:01:37.756Z,94.50
2022-12-06T22:04:05.337Z,94.55
2022-12-06T22:06:36.741Z,94.77
2022-12-06T22:09:06.168Z,94.81
2022-12-06T22:11:34.518Z,94.79
2022-12-06T22:14:02.470Z,95.05
2022-12-06T22:16:30.274Z,95.39
2022-12-06T22:18:58.443Z,95.94
2022-12-06T22:21:28.781Z,95.81
2022-12-06T22:24:00.403Z,96.23
2022-12-06T22:26:30.818Z,96.22
2022-12-06T22:28:59.684Z,96.06
2022-12-06T22:31:30.325Z,95.92
2022-12-06T22:33:58.412Z,95.72
2022-12-06T22:36:26.669Z,95.68
2022-12-06T22:38:58.882Z,95.46
2022-12-06T22:41:27.226Z,95.28
2022-12-06T22:44:00.571Z,95.15
2022-12-06T22:46:29.298Z,95.01
2022-12-06T22:48:57.520Z,94.98
2022-12-06T22:51:27.588Z,94.96
2022-12-06T22:53:57.405Z,94.94
2022-12-06T22:56:25.659Z,94.86
2022-12-06T22:58:57.813Z,94.86
2022-12-06T23:01:29.731Z,94.91
2022-12-06T23:04:00.144Z,94.86
2022-12-06T23:06:27.945Z,94.83
2022-12-06T23:08:55.674Z,94.78
2022-12-06T23:11:31.343Z,94.79
2022-12-06T23:13:58.978Z,94.90
2022-12-06T23:16:29.063Z,95.01
2022-12-06T23:18:58.717Z,94.92
2022-12-06T23:21:28.725Z,94.91
2022-12-06T23:24:02.105Z,94.95
2022-12-06T23:26:35.643Z,94.85
2022-12-06T23:29:03.934Z,94.72
2022-12-06T23:31:34.496Z,94.63
2022-12-06T23:34:13.006Z,94.58
2022-12-06T23:36:40.407Z,94.68
2022-12-06T23:39:08.361Z,94.60
2022-12-06T23:41:36.601Z,94.75
2022-12-06T23:44:05.497Z,94.88
2022-12-06T23:46:37.260Z,94.84
2022-12-06T23:49:07.130Z,95.07
2022-12-06T23:51:37.175Z,95.18
2022-12-06T23:54:07.836Z,95.14
2022-12-06T23:56:37.982Z,95.15
2022-12-06T23:59:07.514Z,95.07
